sensor_id;sensor_type;location;lat;lon;timestamp;P1;durP1;ratioP1;P2;durP2;ratioP2
49340;SDS011;35209;51.050;13.678;2023-08-24T00:00:37;2.47;;;2.00;;
49340;SDS011;35209;51.050;13.678;2023-08-24T00:05:40;1.60;;;1.50;;
49340;SDS011;35209;51.050;13.678;2023-08-24T00:10:43;2.50;;;2.30;;
49340;SDS011;35209;51.050;13.678;2023-08-24T00:15:45;2.53;;;2.10;;
49340;SDS011;35209;51.050;13.678;2023-08-24T00:20:48;1.95;;;1.75;;
49340;SDS011;35209;51.050;13.678;2023-08-24T00:25:50;3.30;;;1.88;;
49340;SDS011;35209;51.050;13.678;2023-08-24T00:30:51;2.95;;;2.05;;
49340;SDS011;35209;51.050;13.678;2023-08-24T00:35:53;3.65;;;2.63;;
49340;SDS011;35209;51.050;13.678;2023-08-24T00:40:55;3.35;;;2.45;;
49340;SDS011;35209;51.050;13.678;2023-08-24T00:45:59;2.33;;;2.13;;
49340;SDS011;35209;51.050;13.678;2023-08-24T00:51:02;3.05;;;2.30;;
49340;SDS011;35209;51.050;13.678;2023-08-24T00:56:06;2.63;;;2.40;;
49340;SDS011;35209;51.050;13.678;2023-08-24T01:01:07;6.80;;;2.20;;
49340;SDS011;35209;51.050;13.678;2023-08-24T01:06:09;4.97;;;2.22;;
49340;SDS011;35209;51.050;13.678;2023-08-24T01:11:12;5.78;;;3.05;;
49340;SDS011;35209;51.050;13.678;2023-08-24T01:16:18;2.78;;;2.50;;
49340;SDS011;35209;51.050;13.678;2023-08-24T01:21:22;4.97;;;2.60;;
49340;SDS011;35209;51.050;13.678;2023-08-24T01:26:25;2.85;;;2.55;;
49340;SDS011;35209;51.050;13.678;2023-08-24T01:31:28;2.70;;;2.25;;
49340;SDS011;35209;51.050;13.678;2023-08-24T01:36:29;6.88;;;2.40;;
49340;SDS011;35209;51.050;13.678;2023-08-24T01:41:35;2.45;;;2.25;;
49340;SDS011;35209;51.050;13.678;2023-08-24T01:46:44;2.60;;;2.38;;
49340;SDS011;35209;51.050;13.678;2023-08-24T01:51:48;2.65;;;2.45;;
49340;SDS011;35209;51.050;13.678;2023-08-24T01:56:50;2.92;;;2.13;;
49340;SDS011;35209;51.050;13.678;2023-08-24T02:01:52;2.70;;;2.40;;
49340;SDS011;35209;51.050;13.678;2023-08-24T02:06:54;3.60;;;2.42;;
49340;SDS011;35209;51.050;13.678;2023-08-24T02:11:56;4.22;;;2.90;;
49340;SDS011;35209;51.050;13.678;2023-08-24T02:16:57;2.80;;;2.55;;
49340;SDS011;35209;51.050;13.678;2023-08-24T02:21:59;3.08;;;2.88;;
49340;SDS011;35209;51.050;13.678;2023-08-24T02:27:01;5.00;;;3.08;;
49340;SDS011;35209;51.050;13.678;2023-08-24T02:32:03;2.78;;;2.38;;
49340;SDS011;35209;51.050;13.678;2023-08-24T02:37:05;2.95;;;2.75;;
49340;SDS011;35209;51.050;13.678;2023-08-24T02:42:07;3.20;;;2.67;;
49340;SDS011;35209;51.050;13.678;2023-08-24T02:47:08;4.05;;;2.95;;
49340;SDS011;35209;51.050;13.678;2023-08-24T02:52:10;3.25;;;3.05;;
49340;SDS011;35209;51.050;13.678;2023-08-24T02:57:12;4.00;;;2.78;;
49340;SDS011;35209;51.050;13.678;2023-08-24T03:02:14;3.47;;;3.17;;
49340;SDS011;35209;51.050;13.678;2023-08-24T03:07:16;2.97;;;2.67;;
49340;SDS011;35209;51.050;13.678;2023-08-24T03:12:17;2.97;;;2.78;;
49340;SDS011;35209;51.050;13.678;2023-08-24T03:17:19;4.32;;;2.88;;
49340;SDS011;35209;51.050;13.678;2023-08-24T03:22:22;4.00;;;2.58;;
49340;SDS011;35209;51.050;13.678;2023-08-24T03:27:24;4.70;;;3.35;;
49340;SDS011;35209;51.050;13.678;2023-08-24T03:32:25;3.75;;;3.45;;
49340;SDS011;35209;51.050;13.678;2023-08-24T03:37:28;3.22;;;2.92;;
49340;SDS011;35209;51.050;13.678;2023-08-24T03:42:29;3.60;;;3.30;;
49340;SDS011;35209;51.050;13.678;2023-08-24T03:47:32;3.38;;;3.17;;
49340;SDS011;35209;51.050;13.678;2023-08-24T03:52:33;4.05;;;3.75;;
49340;SDS011;35209;51.050;13.678;2023-08-24T03:57:35;3.65;;;3.42;;
49340;SDS011;35209;51.050;13.678;2023-08-24T04:02:42;3.65;;;2.95;;
49340;SDS011;35209;51.050;13.678;2023-08-24T04:07:50;3.60;;;3.30;;
49340;SDS011;35209;51.050;13.678;2023-08-24T04:12:53;4.20;;;3.63;;
49340;SDS011;35209;51.050;13.678;2023-08-24T04:17:54;3.97;;;3.30;;
49340;SDS011;35209;51.050;13.678;2023-08-24T04:22:56;3.92;;;3.00;;
49340;SDS011;35209;51.050;13.678;2023-08-24T04:27:58;3.72;;;3.40;;
49340;SDS011;35209;51.050;13.678;2023-08-24T04:33:00;4.00;;;3.70;;
49340;SDS011;35209;51.050;13.678;2023-08-24T04:38:01;4.45;;;4.15;;
49340;SDS011;35209;51.050;13.678;2023-08-24T04:43:03;3.95;;;3.63;;
49340;SDS011;35209;51.050;13.678;2023-08-24T04:48:05;3.58;;;3.38;;
49340;SDS011;35209;51.050;13.678;2023-08-24T04:53:07;3.80;;;3.45;;
49340;SDS011;35209;51.050;13.678;2023-08-24T04:58:09;4.30;;;3.90;;
49340;SDS011;35209;51.050;13.678;2023-08-24T05:03:12;3.25;;;2.95;;
49340;SDS011;35209;51.050;13.678;2023-08-24T05:08:15;5.25;;;3.75;;
49340;SDS011;35209;51.050;13.678;2023-08-24T05:13:16;3.38;;;2.78;;
49340;SDS011;35209;51.050;13.678;2023-08-24T05:18:18;3.83;;;2.92;;
49340;SDS011;35209;51.050;13.678;2023-08-24T05:23:20;3.75;;;3.17;;
49340;SDS011;35209;51.050;13.678;2023-08-24T05:28:22;3.97;;;3.55;;
49340;SDS011;35209;51.050;13.678;2023-08-24T05:33:24;5.03;;;3.58;;
49340;SDS011;35209;51.050;13.678;2023-08-24T05:38:26;3.50;;;3.20;;
49340;SDS011;35209;51.050;13.678;2023-08-24T05:43:27;3.30;;;3.00;;
49340;SDS011;35209;51.050;13.678;2023-08-24T05:48:29;3.95;;;2.80;;
49340;SDS011;35209;51.050;13.678;2023-08-24T05:53:31;4.85;;;3.03;;
49340;SDS011;35209;51.050;13.678;2023-08-24T05:58:33;2.85;;;2.63;;
49340;SDS011;35209;51.050;13.678;2023-08-24T06:03:35;3.00;;;2.75;;
49340;SDS011;35209;51.050;13.678;2023-08-24T06:08:37;3.97;;;2.72;;
49340;SDS011;35209;51.050;13.678;2023-08-24T06:13:38;3.00;;;2.80;;
49340;SDS011;35209;51.050;13.678;2023-08-24T06:18:40;3.45;;;2.60;;
49340;SDS011;35209;51.050;13.678;2023-08-24T06:23:42;2.75;;;2.42;;
49340;SDS011;35209;51.050;13.678;2023-08-24T06:28:45;3.13;;;2.67;;
49340;SDS011;35209;51.050;13.678;2023-08-24T06:33:47;2.13;;;1.90;;
49340;SDS011;35209;51.050;13.678;2023-08-24T06:38:50;2.75;;;2.15;;
49340;SDS011;35209;51.050;13.678;2023-08-24T06:43:52;3.45;;;2.65;;
49340;SDS011;35209;51.050;13.678;2023-08-24T06:48:55;3.40;;;2.17;;
49340;SDS011;35209;51.050;13.678;2023-08-24T06:53:57;3.85;;;2.33;;
49340;SDS011;35209;51.050;13.678;2023-08-24T06:58:58;3.33;;;2.25;;
49340;SDS011;35209;51.050;13.678;2023-08-24T07:04:00;4.80;;;2.00;;
49340;SDS011;35209;51.050;13.678;2023-08-24T07:09:02;2.67;;;1.92;;
49340;SDS011;35209;51.050;13.678;2023-08-24T07:14:07;2.33;;;2.13;;
49340;SDS011;35209;51.050;13.678;2023-08-24T07:19:09;4.50;;;2.20;;
49340;SDS011;35209;51.050;13.678;2023-08-24T07:24:11;1.77;;;1.45;;
49340;SDS011;35209;51.050;13.678;2023-08-24T07:29:13;3.22;;;2.00;;
49340;SDS011;35209;51.050;13.678;2023-08-24T07:34:15;3.45;;;1.88;;
49340;SDS011;35209;51.050;13.678;2023-08-24T07:39:17;6.68;;;1.83;;
49340;SDS011;35209;51.050;13.678;2023-08-24T07:44:18;4.88;;;1.67;;
49340;SDS011;35209;51.050;13.678;2023-08-24T07:49:20;2.83;;;1.73;;
49340;SDS011;35209;51.050;13.678;2023-08-24T07:54:22;4.03;;;1.90;;
49340;SDS011;35209;51.050;13.678;2023-08-24T07:59:24;3.75;;;2.55;;
49340;SDS011;35209;51.050;13.678;2023-08-24T08:04:25;2.00;;;1.80;;
49340;SDS011;35209;51.050;13.678;2023-08-24T08:09:27;3.17;;;1.48;;
49340;SDS011;35209;51.050;13.678;2023-08-24T08:14:29;2.42;;;2.03;;
49340;SDS011;35209;51.050;13.678;2023-08-24T08:19:31;1.73;;;1.42;;
49340;SDS011;35209;51.050;13.678;2023-08-24T08:24:33;3.05;;;1.60;;
49340;SDS011;35209;51.050;13.678;2023-08-24T08:29:34;2.70;;;1.83;;
49340;SDS011;35209;51.050;13.678;2023-08-24T08:34:36;2.42;;;1.50;;
49340;SDS011;35209;51.050;13.678;2023-08-24T08:39:38;3.30;;;2.22;;
49340;SDS011;35209;51.050;13.678;2023-08-24T08:44:46;2.53;;;1.48;;
49340;SDS011;35209;51.050;13.678;2023-08-24T08:49:48;4.88;;;1.10;;
49340;SDS011;35209;51.050;13.678;2023-08-24T08:54:53;2.40;;;1.92;;
49340;SDS011;35209;51.050;13.678;2023-08-24T08:59:58;3.15;;;1.40;;
49340;SDS011;35209;51.050;13.678;2023-08-24T09:05:00;1.77;;;1.00;;
49340;SDS011;35209;51.050;13.678;2023-08-24T09:10:02;4.90;;;1.60;;
49340;SDS011;35209;51.050;13.678;2023-08-24T09:15:08;2.28;;;1.40;;
49340;SDS011;35209;51.050;13.678;2023-08-24T09:20:11;3.65;;;1.58;;
49340;SDS011;35209;51.050;13.678;2023-08-24T09:25:13;2.60;;;1.40;;
49340;SDS011;35209;51.050;13.678;2023-08-24T09:30:15;2.95;;;1.15;;
49340;SDS011;35209;51.050;13.678;2023-08-24T09:35:20;1.98;;;1.17;;
49340;SDS011;35209;51.050;13.678;2023-08-24T09:40:25;3.42;;;1.10;;
49340;SDS011;35209;51.050;13.678;2023-08-24T09:50:29;1.58;;;1.13;;
49340;SDS011;35209;51.050;13.678;2023-08-24T09:55:31;2.47;;;1.40;;
49340;SDS011;35209;51.050;13.678;2023-08-24T10:00:37;2.78;;;1.30;;
49340;SDS011;35209;51.050;13.678;2023-08-24T10:05:39;6.38;;;1.70;;
49340;SDS011;35209;51.050;13.678;2023-08-24T10:10:56;1.73;;;1.20;;
49340;SDS011;35209;51.050;13.678;2023-08-24T10:16:00;4.18;;;1.33;;
49340;SDS011;35209;51.050;13.678;2023-08-24T10:21:02;1.70;;;1.02;;
49340;SDS011;35209;51.050;13.678;2023-08-24T10:26:05;2.22;;;1.30;;
49340;SDS011;35209;51.050;13.678;2023-08-24T10:36:12;1.55;;;1.20;;
49340;SDS011;35209;51.050;13.678;2023-08-24T10:41:15;3.75;;;1.27;;
49340;SDS011;35209;51.050;13.678;2023-08-24T10:46:17;6.70;;;1.33;;
49340;SDS011;35209;51.050;13.678;2023-08-24T10:51:23;2.70;;;1.50;;
49340;SDS011;35209;51.050;13.678;2023-08-24T10:56:34;2.17;;;1.30;;
49340;SDS011;35209;51.050;13.678;2023-08-24T11:01:41;1.67;;;1.00;;
49340;SDS011;35209;51.050;13.678;2023-08-24T11:06:53;1.40;;;1.10;;
49340;SDS011;35209;51.050;13.678;2023-08-24T11:12:01;1.33;;;1.15;;
49340;SDS011;35209;51.050;13.678;2023-08-24T11:17:20;1.65;;;1.10;;
49340;SDS011;35209;51.050;13.678;2023-08-24T11:22:22;1.90;;;1.25;;
49340;SDS011;35209;51.050;13.678;2023-08-24T11:27:26;1.80;;;1.27;;
49340;SDS011;35209;51.050;13.678;2023-08-24T11:32:28;1.45;;;1.10;;
49340;SDS011;35209;51.050;13.678;2023-08-24T11:37:30;3.00;;;1.40;;
49340;SDS011;35209;51.050;13.678;2023-08-24T11:42:36;3.15;;;1.40;;
49340;SDS011;35209;51.050;13.678;2023-08-24T11:47:37;2.08;;;1.67;;
49340;SDS011;35209;51.050;13.678;2023-08-24T11:52:40;2.53;;;1.25;;
49340;SDS011;35209;51.050;13.678;2023-08-24T11:57:45;1.73;;;1.13;;
49340;SDS011;35209;51.050;13.678;2023-08-24T12:02:47;5.07;;;1.30;;
49340;SDS011;35209;51.050;13.678;2023-08-24T12:07:53;1.55;;;1.10;;
49340;SDS011;35209;51.050;13.678;2023-08-24T12:13:05;2.15;;;1.40;;
49340;SDS011;35209;51.050;13.678;2023-08-24T12:18:10;2.13;;;1.10;;
49340;SDS011;35209;51.050;13.678;2023-08-24T12:23:13;1.90;;;1.30;;
49340;SDS011;35209;51.050;13.678;2023-08-24T12:28:15;3.22;;;1.30;;
49340;SDS011;35209;51.050;13.678;2023-08-24T12:33:24;1.50;;;1.40;;
49340;SDS011;35209;51.050;13.678;2023-08-24T12:38:27;1.83;;;1.33;;
49340;SDS011;35209;51.050;13.678;2023-08-24T12:43:29;1.65;;;1.38;;
49340;SDS011;35209;51.050;13.678;2023-08-24T12:48:31;3.90;;;1.35;;
49340;SDS011;35209;51.050;13.678;2023-08-24T12:53:32;1.70;;;1.33;;
49340;SDS011;35209;51.050;13.678;2023-08-24T12:58:37;1.50;;;1.10;;
49340;SDS011;35209;51.050;13.678;2023-08-24T13:03:39;2.08;;;1.30;;
49340;SDS011;35209;51.050;13.678;2023-08-24T13:08:41;4.25;;;1.40;;
49340;SDS011;35209;51.050;13.678;2023-08-24T13:13:42;2.47;;;1.65;;
49340;SDS011;35209;51.050;13.678;2023-08-24T13:18:47;1.77;;;1.20;;
49340;SDS011;35209;51.050;13.678;2023-08-24T13:23:49;1.65;;;1.40;;
49340;SDS011;35209;51.050;13.678;2023-08-24T13:28:51;2.42;;;1.20;;
49340;SDS011;35209;51.050;13.678;2023-08-24T13:33:53;1.85;;;1.40;;
49340;SDS011;35209;51.050;13.678;2023-08-24T13:38:55;1.95;;;1.40;;
49340;SDS011;35209;51.050;13.678;2023-08-24T13:43:56;1.42;;;1.27;;
49340;SDS011;35209;51.050;13.678;2023-08-24T13:48:58;2.28;;;1.40;;
49340;SDS011;35209;51.050;13.678;2023-08-24T13:54:00;2.53;;;1.60;;
49340;SDS011;35209;51.050;13.678;2023-08-24T13:59:05;3.10;;;1.48;;
49340;SDS011;35209;51.050;13.678;2023-08-24T14:04:07;2.95;;;1.55;;
49340;SDS011;35209;51.050;13.678;2023-08-24T14:09:09;2.25;;;1.45;;
49340;SDS011;35209;51.050;13.678;2023-08-24T14:14:11;2.80;;;1.65;;
49340;SDS011;35209;51.050;13.678;2023-08-24T14:19:13;1.98;;;1.50;;
49340;SDS011;35209;51.050;13.678;2023-08-24T14:24:17;2.90;;;1.48;;
49340;SDS011;35209;51.050;13.678;2023-08-24T14:29:20;2.05;;;1.40;;
49340;SDS011;35209;51.050;13.678;2023-08-24T14:34:22;3.67;;;1.60;;
49340;SDS011;35209;51.050;13.678;2023-08-24T14:39:23;3.75;;;1.50;;
49340;SDS011;35209;51.050;13.678;2023-08-24T14:44:25;2.58;;;1.70;;
49340;SDS011;35209;51.050;13.678;2023-08-24T14:49:27;2.85;;;1.42;;
49340;SDS011;35209;51.050;13.678;2023-08-24T14:54:29;2.63;;;1.50;;
49340;SDS011;35209;51.050;13.678;2023-08-24T14:59:31;2.95;;;1.70;;
49340;SDS011;35209;51.050;13.678;2023-08-24T15:04:33;4.53;;;1.67;;
49340;SDS011;35209;51.050;13.678;2023-08-24T15:09:35;2.53;;;1.90;;
49340;SDS011;35209;51.050;13.678;2023-08-24T15:14:36;2.55;;;1.63;;
49340;SDS011;35209;51.050;13.678;2023-08-24T15:19:38;3.97;;;1.83;;
49340;SDS011;35209;51.050;13.678;2023-08-24T15:24:40;2.55;;;1.83;;
49340;SDS011;35209;51.050;13.678;2023-08-24T15:29:43;2.53;;;1.67;;
49340;SDS011;35209;51.050;13.678;2023-08-24T15:34:45;3.10;;;1.63;;
49340;SDS011;35209;51.050;13.678;2023-08-24T15:39:47;2.35;;;1.70;;
49340;SDS011;35209;51.050;13.678;2023-08-24T15:44:49;4.00;;;1.90;;
49340;SDS011;35209;51.050;13.678;2023-08-24T15:49:50;2.63;;;1.67;;
49340;SDS011;35209;51.050;13.678;2023-08-24T15:54:52;2.47;;;1.60;;
49340;SDS011;35209;51.050;13.678;2023-08-24T15:59:54;2.33;;;1.80;;
49340;SDS011;35209;51.050;13.678;2023-08-24T16:04:56;2.78;;;1.65;;
49340;SDS011;35209;51.050;13.678;2023-08-24T16:09:58;4.47;;;1.60;;
49340;SDS011;35209;51.050;13.678;2023-08-24T16:15:00;3.60;;;2.03;;
49340;SDS011;35209;51.050;13.678;2023-08-24T16:20:02;3.80;;;1.70;;
49340;SDS011;35209;51.050;13.678;2023-08-24T16:25:08;1.98;;;1.17;;
49340;SDS011;35209;51.050;13.678;2023-08-24T16:30:10;3.40;;;1.85;;
49340;SDS011;35209;51.050;13.678;2023-08-24T16:35:13;3.85;;;1.83;;
49340;SDS011;35209;51.050;13.678;2023-08-24T16:40:15;3.65;;;1.67;;
49340;SDS011;35209;51.050;13.678;2023-08-24T16:45:17;3.88;;;1.90;;
49340;SDS011;35209;51.050;13.678;2023-08-24T16:50:19;3.45;;;1.77;;
49340;SDS011;35209;51.050;13.678;2023-08-24T16:55:21;3.00;;;1.70;;
49340;SDS011;35209;51.050;13.678;2023-08-24T17:00:22;4.00;;;2.05;;
49340;SDS011;35209;51.050;13.678;2023-08-24T17:05:25;2.15;;;1.33;;
49340;SDS011;35209;51.050;13.678;2023-08-24T17:10:26;4.07;;;1.40;;
49340;SDS011;35209;51.050;13.678;2023-08-24T17:15:28;2.38;;;1.63;;
49340;SDS011;35209;51.050;13.678;2023-08-24T17:20:30;1.92;;;1.50;;
49340;SDS011;35209;51.050;13.678;2023-08-24T17:25:43;1.95;;;1.70;;
49340;SDS011;35209;51.050;13.678;2023-08-24T17:30:46;2.70;;;1.90;;
49340;SDS011;35209;51.050;13.678;2023-08-24T17:35:49;2.00;;;1.70;;
49340;SDS011;35209;51.050;13.678;2023-08-24T17:41:01;2.90;;;1.63;;
49340;SDS011;35209;51.050;13.678;2023-08-24T17:46:07;4.05;;;1.63;;
49340;SDS011;35209;51.050;13.678;2023-08-24T17:51:09;1.90;;;1.50;;
49340;SDS011;35209;51.050;13.678;2023-08-24T17:56:11;2.83;;;1.60;;
49340;SDS011;35209;51.050;13.678;2023-08-24T18:01:13;3.45;;;1.95;;
49340;SDS011;35209;51.050;13.678;2023-08-24T18:06:15;4.82;;;2.42;;
49340;SDS011;35209;51.050;13.678;2023-08-24T18:11:17;3.25;;;2.13;;
49340;SDS011;35209;51.050;13.678;2023-08-24T18:16:19;2.53;;;2.30;;
49340;SDS011;35209;51.050;13.678;2023-08-24T18:21:21;2.80;;;2.05;;
49340;SDS011;35209;51.050;13.678;2023-08-24T18:26:22;2.58;;;2.38;;
49340;SDS011;35209;51.050;13.678;2023-08-24T18:31:24;3.75;;;2.20;;
49340;SDS011;35209;51.050;13.678;2023-08-24T18:36:27;3.92;;;2.55;;
49340;SDS011;35209;51.050;13.678;2023-08-24T18:41:29;3.30;;;2.47;;
49340;SDS011;35209;51.050;13.678;2023-08-24T18:46:30;2.70;;;2.45;;
49340;SDS011;35209;51.050;13.678;2023-08-24T18:51:32;2.63;;;2.40;;
49340;SDS011;35209;51.050;13.678;2023-08-24T18:56:34;3.30;;;2.67;;
49340;SDS011;35209;51.050;13.678;2023-08-24T19:01:36;3.45;;;2.67;;
49340;SDS011;35209;51.050;13.678;2023-08-24T19:06:39;3.45;;;2.95;;
49340;SDS011;35209;51.050;13.678;2023-08-24T19:11:48;4.68;;;3.20;;
49340;SDS011;35209;51.050;13.678;2023-08-24T19:16:49;4.40;;;3.00;;
49340;SDS011;35209;51.050;13.678;2023-08-24T19:21:51;4.25;;;3.60;;
49340;SDS011;35209;51.050;13.678;2023-08-24T19:26:53;3.17;;;2.80;;
49340;SDS011;35209;51.050;13.678;2023-08-24T19:31:55;3.83;;;3.45;;
49340;SDS011;35209;51.050;13.678;2023-08-24T19:36:57;3.55;;;3.25;;
49340;SDS011;35209;51.050;13.678;2023-08-24T19:41:58;3.85;;;3.45;;
49340;SDS011;35209;51.050;13.678;2023-08-24T19:47:00;3.47;;;2.65;;
49340;SDS011;35209;51.050;13.678;2023-08-24T19:52:02;3.58;;;2.92;;
49340;SDS011;35209;51.050;13.678;2023-08-24T19:57:07;3.93;;;3.53;;
49340;SDS011;35209;51.050;13.678;2023-08-24T20:02:09;4.50;;;3.35;;
49340;SDS011;35209;51.050;13.678;2023-08-24T20:07:11;2.95;;;2.47;;
49340;SDS011;35209;51.050;13.678;2023-08-24T20:12:13;3.45;;;2.70;;
49340;SDS011;35209;51.050;13.678;2023-08-24T20:17:16;4.80;;;3.03;;
49340;SDS011;35209;51.050;13.678;2023-08-24T20:22:19;4.20;;;3.80;;
49340;SDS011;35209;51.050;13.678;2023-08-24T20:27:21;4.10;;;3.10;;
49340;SDS011;35209;51.050;13.678;2023-08-24T20:32:24;4.00;;;3.22;;
49340;SDS011;35209;51.050;13.678;2023-08-24T20:37:26;3.67;;;3.08;;
49340;SDS011;35209;51.050;13.678;2023-08-24T20:42:27;3.80;;;2.92;;
49340;SDS011;35209;51.050;13.678;2023-08-24T20:47:30;3.33;;;2.75;;
49340;SDS011;35209;51.050;13.678;2023-08-24T20:52:31;3.88;;;3.47;;
49340;SDS011;35209;51.050;13.678;2023-08-24T20:57:33;4.97;;;3.20;;
49340;SDS011;35209;51.050;13.678;2023-08-24T21:02:35;5.13;;;3.25;;
49340;SDS011;35209;51.050;13.678;2023-08-24T21:07:37;5.22;;;3.45;;
49340;SDS011;35209;51.050;13.678;2023-08-24T21:12:39;9.77;;;3.42;;
49340;SDS011;35209;51.050;13.678;2023-08-24T21:17:41;6.15;;;3.88;;
49340;SDS011;35209;51.050;13.678;2023-08-24T21:22:43;5.30;;;3.25;;
49340;SDS011;35209;51.050;13.678;2023-08-24T21:27:44;2.72;;;2.53;;
49340;SDS011;35209;51.050;13.678;2023-08-24T21:32:47;5.30;;;3.50;;
49340;SDS011;35209;51.050;13.678;2023-08-24T21:37:49;3.03;;;2.72;;
49340;SDS011;35209;51.050;13.678;2023-08-24T21:42:50;3.95;;;3.35;;
49340;SDS011;35209;51.050;13.678;2023-08-24T21:47:52;3.10;;;2.80;;
49340;SDS011;35209;51.050;13.678;2023-08-24T21:52:54;3.75;;;3.45;;
49340;SDS011;35209;51.050;13.678;2023-08-24T21:57:56;6.00;;;2.45;;
49340;SDS011;35209;51.050;13.678;2023-08-24T22:02:59;3.05;;;2.72;;
49340;SDS011;35209;51.050;13.678;2023-08-24T22:08:01;3.45;;;2.88;;
49340;SDS011;35209;51.050;13.678;2023-08-24T22:13:06;3.85;;;3.05;;
49340;SDS011;35209;51.050;13.678;2023-08-24T22:18:08;2.50;;;2.30;;
49340;SDS011;35209;51.050;13.678;2023-08-24T22:23:10;3.03;;;2.72;;
49340;SDS011;35209;51.050;13.678;2023-08-24T22:28:12;5.18;;;3.45;;
49340;SDS011;35209;51.050;13.678;2023-08-24T22:33:14;3.63;;;3.33;;
49340;SDS011;35209;51.050;13.678;2023-08-24T22:38:16;3.38;;;2.72;;
49340;SDS011;35209;51.050;13.678;2023-08-24T22:43:17;2.97;;;2.78;;
49340;SDS011;35209;51.050;13.678;2023-08-24T22:48:19;3.53;;;2.65;;
49340;SDS011;35209;51.050;13.678;2023-08-24T22:53:21;4.35;;;2.58;;
49340;SDS011;35209;51.050;13.678;2023-08-24T22:58:23;2.80;;;2.50;;
49340;SDS011;35209;51.050;13.678;2023-08-24T23:03:24;2.53;;;1.90;;
49340;SDS011;35209;51.050;13.678;2023-08-24T23:08:26;4.32;;;2.55;;
49340;SDS011;35209;51.050;13.678;2023-08-24T23:13:28;4.05;;;2.38;;
49340;SDS011;35209;51.050;13.678;2023-08-24T23:18:31;2.97;;;2.05;;
49340;SDS011;35209;51.050;13.678;2023-08-24T23:23:33;3.63;;;2.47;;
49340;SDS011;35209;51.050;13.678;2023-08-24T23:28:34;3.08;;;2.42;;
49340;SDS011;35209;51.050;13.678;2023-08-24T23:33:36;3.03;;;2.50;;
49340;SDS011;35209;51.050;13.678;2023-08-24T23:38:38;3.92;;;2.92;;
49340;SDS011;35209;51.050;13.678;2023-08-24T23:43:40;3.85;;;3.15;;
49340;SDS011;35209;51.050;13.678;2023-08-24T23:48:41;2.83;;;2.50;;
49340;SDS011;35209;51.050;13.678;2023-08-24T23:53:43;3.05;;;2.67;;
49340;SDS011;35209;51.050;13.678;2023-08-24T23:58:45;3.47;;;2.40;;
